sensor_id;sensor_type;location;lat;lon;timestamp;P1;durP1;ratioP1;P2;durP2;ratioP2
65871;SDS011;52653;50.080;21.992;2022-10-03T00:09:01;5.90;;;2.80;;
65871;SDS011;52653;50.080;21.992;2022-10-03T00:11:51;7.10;;;3.40;;
65871;SDS011;52653;50.080;21.992;2022-10-03T00:14:38;7.70;;;3.30;;
65871;SDS011;52653;50.080;21.992;2022-10-03T00:17:14;7.00;;;3.60;;
65871;SDS011;52653;50.080;21.992;2022-10-03T00:19:57;7.10;;;3.50;;
65871;SDS011;52653;50.080;21.992;2022-10-03T00:22:36;6.30;;;3.10;;
65871;SDS011;52653;50.080;21.992;2022-10-03T00:25:20;6.40;;;3.80;;
65871;SDS011;52653;50.080;21.992;2022-10-03T00:28:07;7.30;;;3.80;;
65871;SDS011;52653;50.080;21.992;2022-10-03T00:30:51;7.60;;;3.40;;
65871;SDS011;52653;50.080;21.992;2022-10-03T00:33:37;6.90;;;3.60;;
65871;SDS011;52653;50.080;21.992;2022-10-03T00:36:20;7.60;;;3.20;;
65871;SDS011;52653;50.080;21.992;2022-10-03T00:39:21;7.80;;;3.70;;
65871;SDS011;52653;50.080;21.992;2022-10-03T00:48:40;8.60;;;4.20;;
65871;SDS011;52653;50.080;21.992;2022-10-03T00:51:31;6.30;;;3.30;;
65871;SDS011;52653;50.080;21.992;2022-10-03T00:54:19;7.30;;;3.30;;
65871;SDS011;52653;50.080;21.992;2022-10-03T00:57:10;8.80;;;3.70;;
65871;SDS011;52653;50.080;21.992;2022-10-03T01:00:03;6.40;;;3.10;;
65871;SDS011;52653;50.080;21.992;2022-10-03T01:05:42;6.50;;;3.00;;
65871;SDS011;52653;50.080;21.992;2022-10-03T01:08:34;6.30;;;3.00;;
65871;SDS011;52653;50.080;21.992;2022-10-03T01:11:19;6.40;;;2.90;;
65871;SDS011;52653;50.080;21.992;2022-10-03T01:14:03;8.10;;;3.30;;
65871;SDS011;52653;50.080;21.992;2022-10-03T01:16:49;6.80;;;2.90;;
65871;SDS011;52653;50.080;21.992;2022-10-03T01:19:34;6.10;;;2.80;;
65871;SDS011;52653;50.080;21.992;2022-10-03T01:22:47;6.70;;;3.00;;
65871;SDS011;52653;50.080;21.992;2022-10-03T01:25:37;5.20;;;2.60;;
65871;SDS011;52653;50.080;21.992;2022-10-03T01:28:19;6.90;;;3.00;;
65871;SDS011;52653;50.080;21.992;2022-10-03T01:31:32;5.90;;;2.70;;
65871;SDS011;52653;50.080;21.992;2022-10-03T01:34:11;6.00;;;3.10;;
65871;SDS011;52653;50.080;21.992;2022-10-03T01:37:03;8.20;;;3.30;;
65871;SDS011;52653;50.080;21.992;2022-10-03T01:39:43;5.80;;;3.30;;
65871;SDS011;52653;50.080;21.992;2022-10-03T01:42:30;6.30;;;2.80;;
65871;SDS011;52653;50.080;21.992;2022-10-03T01:45:11;5.00;;;2.60;;
65871;SDS011;52653;50.080;21.992;2022-10-03T01:48:05;6.80;;;2.70;;
65871;SDS011;52653;50.080;21.992;2022-10-03T01:50:49;5.60;;;2.90;;
65871;SDS011;52653;50.080;21.992;2022-10-03T01:53:31;5.70;;;3.30;;
65871;SDS011;52653;50.080;21.992;2022-10-03T01:56:31;8.30;;;3.50;;
65871;SDS011;52653;50.080;21.992;2022-10-03T02:01:45;6.20;;;2.80;;
65871;SDS011;52653;50.080;21.992;2022-10-03T02:07:01;7.10;;;3.10;;
65871;SDS011;52653;50.080;21.992;2022-10-03T02:09:47;6.60;;;2.60;;
65871;SDS011;52653;50.080;21.992;2022-10-03T02:12:28;5.60;;;2.30;;
65871;SDS011;52653;50.080;21.992;2022-10-03T02:15:10;7.20;;;2.70;;
65871;SDS011;52653;50.080;21.992;2022-10-03T02:17:49;8.10;;;2.90;;
65871;SDS011;52653;50.080;21.992;2022-10-03T02:20:30;5.70;;;2.50;;
65871;SDS011;52653;50.080;21.992;2022-10-03T02:23:19;7.70;;;2.60;;
65871;SDS011;52653;50.080;21.992;2022-10-03T02:26:19;6.70;;;2.80;;
65871;SDS011;52653;50.080;21.992;2022-10-03T02:29:22;6.80;;;3.20;;
65871;SDS011;52653;50.080;21.992;2022-10-03T02:35:26;7.20;;;2.70;;
65871;SDS011;52653;50.080;21.992;2022-10-03T02:38:23;8.20;;;3.00;;
65871;SDS011;52653;50.080;21.992;2022-10-03T02:41:32;6.90;;;2.50;;
65871;SDS011;52653;50.080;21.992;2022-10-03T02:44:33;5.50;;;2.30;;
65871;SDS011;52653;50.080;21.992;2022-10-03T02:47:44;8.40;;;2.70;;
65871;SDS011;52653;50.080;21.992;2022-10-03T02:51:01;6.00;;;2.80;;
65871;SDS011;52653;50.080;21.992;2022-10-03T02:54:16;8.10;;;2.70;;
65871;SDS011;52653;50.080;21.992;2022-10-03T03:00:17;7.90;;;2.40;;
65871;SDS011;52653;50.080;21.992;2022-10-03T03:03:25;5.70;;;2.60;;
65871;SDS011;52653;50.080;21.992;2022-10-03T03:06:16;6.90;;;2.40;;
65871;SDS011;52653;50.080;21.992;2022-10-03T03:12:49;6.30;;;2.70;;
65871;SDS011;52653;50.080;21.992;2022-10-03T03:19:17;5.90;;;2.70;;
65871;SDS011;52653;50.080;21.992;2022-10-03T03:22:07;5.90;;;2.80;;
65871;SDS011;52653;50.080;21.992;2022-10-03T03:24:57;7.60;;;3.20;;
65871;SDS011;52653;50.080;21.992;2022-10-03T03:27:48;7.90;;;3.30;;
65871;SDS011;52653;50.080;21.992;2022-10-03T03:30:57;6.60;;;3.40;;
65871;SDS011;52653;50.080;21.992;2022-10-03T03:33:48;8.20;;;3.10;;
65871;SDS011;52653;50.080;21.992;2022-10-03T03:36:31;8.20;;;3.70;;
65871;SDS011;52653;50.080;21.992;2022-10-03T03:39:15;8.00;;;3.40;;
65871;SDS011;52653;50.080;21.992;2022-10-03T03:42:05;6.60;;;2.90;;
65871;SDS011;52653;50.080;21.992;2022-10-03T03:45:03;6.10;;;2.60;;
65871;SDS011;52653;50.080;21.992;2022-10-03T03:47:56;6.10;;;2.50;;
65871;SDS011;52653;50.080;21.992;2022-10-03T03:50:48;5.50;;;2.80;;
65871;SDS011;52653;50.080;21.992;2022-10-03T03:53:35;7.30;;;2.80;;
65871;SDS011;52653;50.080;21.992;2022-10-03T03:59:58;6.10;;;2.80;;
65871;SDS011;52653;50.080;21.992;2022-10-03T04:02:47;8.20;;;3.00;;
65871;SDS011;52653;50.080;21.992;2022-10-03T04:05:36;8.00;;;2.40;;
65871;SDS011;52653;50.080;21.992;2022-10-03T04:08:28;5.20;;;2.20;;
65871;SDS011;52653;50.080;21.992;2022-10-03T04:11:14;5.80;;;2.60;;
65871;SDS011;52653;50.080;21.992;2022-10-03T04:14:02;7.10;;;2.50;;
65871;SDS011;52653;50.080;21.992;2022-10-03T04:17:15;6.00;;;2.50;;
65871;SDS011;52653;50.080;21.992;2022-10-03T04:20:17;5.20;;;2.20;;
65871;SDS011;52653;50.080;21.992;2022-10-03T04:23:07;4.20;;;2.00;;
65871;SDS011;52653;50.080;21.992;2022-10-03T04:25:59;5.00;;;2.20;;
65871;SDS011;52653;50.080;21.992;2022-10-03T04:31:48;4.30;;;2.50;;
65871;SDS011;52653;50.080;21.992;2022-10-03T04:34:33;5.80;;;2.00;;
65871;SDS011;52653;50.080;21.992;2022-10-03T04:37:16;6.50;;;2.20;;
65871;SDS011;52653;50.080;21.992;2022-10-03T04:40:00;7.20;;;2.20;;
65871;SDS011;52653;50.080;21.992;2022-10-03T04:42:48;4.30;;;1.90;;
65871;SDS011;52653;50.080;21.992;2022-10-03T04:45:39;4.20;;;2.00;;
65871;SDS011;52653;50.080;21.992;2022-10-03T04:48:26;7.50;;;2.70;;
65871;SDS011;52653;50.080;21.992;2022-10-03T04:51:07;7.40;;;2.00;;
65871;SDS011;52653;50.080;21.992;2022-10-03T04:53:51;6.80;;;2.60;;
65871;SDS011;52653;50.080;21.992;2022-10-03T04:56:34;5.10;;;1.80;;
65871;SDS011;52653;50.080;21.992;2022-10-03T04:59:23;6.90;;;2.70;;
65871;SDS011;52653;50.080;21.992;2022-10-03T05:02:09;6.40;;;1.90;;
65871;SDS011;52653;50.080;21.992;2022-10-03T05:04:57;3.40;;;1.50;;
65871;SDS011;52653;50.080;21.992;2022-10-03T05:07:59;4.90;;;1.70;;
65871;SDS011;52653;50.080;21.992;2022-10-03T05:10:46;6.90;;;2.10;;
65871;SDS011;52653;50.080;21.992;2022-10-03T05:13:30;4.80;;;2.10;;
65871;SDS011;52653;50.080;21.992;2022-10-03T05:16:14;5.70;;;2.10;;
65871;SDS011;52653;50.080;21.992;2022-10-03T05:18:54;6.10;;;2.10;;
65871;SDS011;52653;50.080;21.992;2022-10-03T05:21:38;4.10;;;1.50;;
65871;SDS011;52653;50.080;21.992;2022-10-03T05:24:18;5.30;;;1.80;;
65871;SDS011;52653;50.080;21.992;2022-10-03T05:26:55;6.00;;;2.20;;
65871;SDS011;52653;50.080;21.992;2022-10-03T05:29:33;4.10;;;1.50;;
65871;SDS011;52653;50.080;21.992;2022-10-03T05:32:15;7.00;;;2.10;;
65871;SDS011;52653;50.080;21.992;2022-10-03T05:34:59;5.20;;;2.10;;
65871;SDS011;52653;50.080;21.992;2022-10-03T05:37:51;5.50;;;2.20;;
65871;SDS011;52653;50.080;21.992;2022-10-03T05:40:40;5.20;;;2.30;;
65871;SDS011;52653;50.080;21.992;2022-10-03T05:43:23;4.60;;;1.70;;
65871;SDS011;52653;50.080;21.992;2022-10-03T05:46:06;6.90;;;2.20;;
65871;SDS011;52653;50.080;21.992;2022-10-03T05:48:51;5.20;;;2.20;;
65871;SDS011;52653;50.080;21.992;2022-10-03T05:51:42;4.80;;;1.80;;
65871;SDS011;52653;50.080;21.992;2022-10-03T05:54:31;4.90;;;1.90;;
65871;SDS011;52653;50.080;21.992;2022-10-03T06:00:38;4.80;;;1.70;;
65871;SDS011;52653;50.080;21.992;2022-10-03T06:03:31;4.80;;;1.70;;
65871;SDS011;52653;50.080;21.992;2022-10-03T06:06:26;5.50;;;2.10;;
65871;SDS011;52653;50.080;21.992;2022-10-03T06:12:14;5.10;;;2.60;;
65871;SDS011;52653;50.080;21.992;2022-10-03T06:18:16;7.60;;;2.90;;
65871;SDS011;52653;50.080;21.992;2022-10-03T06:24:07;7.30;;;2.80;;
65871;SDS011;52653;50.080;21.992;2022-10-03T06:30:15;24.30;;;13.20;;
65871;SDS011;52653;50.080;21.992;2022-10-03T06:33:00;18.50;;;11.60;;
65871;SDS011;52653;50.080;21.992;2022-10-03T06:44:59;6.00;;;2.30;;
65871;SDS011;52653;50.080;21.992;2022-10-03T06:47:51;12.20;;;2.40;;
65871;SDS011;52653;50.080;21.992;2022-10-03T06:53:58;10.70;;;4.60;;
65871;SDS011;52653;50.080;21.992;2022-10-03T06:57:11;12.20;;;5.50;;
65871;SDS011;52653;50.080;21.992;2022-10-03T07:00:08;10.40;;;3.80;;
65871;SDS011;52653;50.080;21.992;2022-10-03T07:09:07;6.20;;;2.10;;
65871;SDS011;52653;50.080;21.992;2022-10-03T07:15:36;3.50;;;1.40;;
65871;SDS011;52653;50.080;21.992;2022-10-03T07:32:16;4.70;;;1.90;;
65871;SDS011;52653;50.080;21.992;2022-10-03T07:35:07;6.30;;;1.90;;
65871;SDS011;52653;50.080;21.992;2022-10-03T07:41:23;3.20;;;1.40;;
65871;SDS011;52653;50.080;21.992;2022-10-03T07:44:26;5.00;;;1.50;;
65871;SDS011;52653;50.080;21.992;2022-10-03T07:47:25;3.90;;;1.30;;
65871;SDS011;52653;50.080;21.992;2022-10-03T07:50:27;5.60;;;1.70;;
65871;SDS011;52653;50.080;21.992;2022-10-03T07:53:15;4.80;;;1.60;;
65871;SDS011;52653;50.080;21.992;2022-10-03T07:56:06;6.20;;;2.00;;
65871;SDS011;52653;50.080;21.992;2022-10-03T07:59:00;3.50;;;1.30;;
65871;SDS011;52653;50.080;21.992;2022-10-03T08:01:51;5.70;;;1.50;;
65871;SDS011;52653;50.080;21.992;2022-10-03T08:04:42;6.90;;;2.20;;
65871;SDS011;52653;50.080;21.992;2022-10-03T08:07:41;4.30;;;1.50;;
65871;SDS011;52653;50.080;21.992;2022-10-03T08:10:43;3.70;;;1.40;;
65871;SDS011;52653;50.080;21.992;2022-10-03T08:13:46;3.70;;;1.40;;
65871;SDS011;52653;50.080;21.992;2022-10-03T08:16:39;6.70;;;1.60;;
65871;SDS011;52653;50.080;21.992;2022-10-03T08:19:29;4.40;;;1.80;;
65871;SDS011;52653;50.080;21.992;2022-10-03T08:22:17;4.80;;;1.80;;
65871;SDS011;52653;50.080;21.992;2022-10-03T08:25:15;5.60;;;1.70;;
65871;SDS011;52653;50.080;21.992;2022-10-03T08:28:01;6.10;;;1.90;;
65871;SDS011;52653;50.080;21.992;2022-10-03T08:30:56;5.10;;;1.90;;
65871;SDS011;52653;50.080;21.992;2022-10-03T08:33:53;6.00;;;2.00;;
65871;SDS011;52653;50.080;21.992;2022-10-03T08:37:02;5.40;;;1.90;;
65871;SDS011;52653;50.080;21.992;2022-10-03T08:40:14;6.10;;;2.30;;
65871;SDS011;52653;50.080;21.992;2022-10-03T08:46:50;6.40;;;2.10;;
65871;SDS011;52653;50.080;21.992;2022-10-03T08:53:01;4.00;;;1.50;;
65871;SDS011;52653;50.080;21.992;2022-10-03T08:55:52;5.40;;;1.90;;
65871;SDS011;52653;50.080;21.992;2022-10-03T08:58:41;7.60;;;1.60;;
65871;SDS011;52653;50.080;21.992;2022-10-03T09:01:34;4.20;;;1.40;;
65871;SDS011;52653;50.080;21.992;2022-10-03T09:07:47;5.50;;;2.00;;
65871;SDS011;52653;50.080;21.992;2022-10-03T09:10:55;7.50;;;1.70;;
65871;SDS011;52653;50.080;21.992;2022-10-03T09:17:05;3.30;;;1.30;;
65871;SDS011;52653;50.080;21.992;2022-10-03T09:20:09;4.00;;;1.20;;
65871;SDS011;52653;50.080;21.992;2022-10-03T09:25:45;5.00;;;1.50;;
65871;SDS011;52653;50.080;21.992;2022-10-03T09:28:47;5.10;;;1.20;;
65871;SDS011;52653;50.080;21.992;2022-10-03T09:31:58;3.40;;;1.10;;
65871;SDS011;52653;50.080;21.992;2022-10-03T09:34:58;5.10;;;1.60;;
65871;SDS011;52653;50.080;21.992;2022-10-03T09:38:12;5.10;;;1.60;;
65871;SDS011;52653;50.080;21.992;2022-10-03T09:44:21;3.10;;;1.00;;
65871;SDS011;52653;50.080;21.992;2022-10-03T09:47:06;6.00;;;1.30;;
65871;SDS011;52653;50.080;21.992;2022-10-03T09:50:07;4.30;;;1.50;;
65871;SDS011;52653;50.080;21.992;2022-10-03T09:53:11;3.90;;;1.60;;
65871;SDS011;52653;50.080;21.992;2022-10-03T09:56:14;6.60;;;2.30;;
65871;SDS011;52653;50.080;21.992;2022-10-03T09:59:13;6.10;;;1.80;;
65871;SDS011;52653;50.080;21.992;2022-10-03T10:01:58;3.40;;;1.40;;
65871;SDS011;52653;50.080;21.992;2022-10-03T10:04:53;4.80;;;1.90;;
65871;SDS011;52653;50.080;21.992;2022-10-03T10:08:01;3.90;;;1.60;;
65871;SDS011;52653;50.080;21.992;2022-10-03T10:11:01;3.80;;;1.20;;
65871;SDS011;52653;50.080;21.992;2022-10-03T10:20:08;3.30;;;1.20;;
65871;SDS011;52653;50.080;21.992;2022-10-03T10:26:19;3.70;;;1.70;;
65871;SDS011;52653;50.080;21.992;2022-10-03T10:29:27;3.80;;;1.40;;
65871;SDS011;52653;50.080;21.992;2022-10-03T10:35:33;6.50;;;1.70;;
65871;SDS011;52653;50.080;21.992;2022-10-03T10:48:33;6.70;;;1.30;;
65871;SDS011;52653;50.080;21.992;2022-10-03T10:51:45;3.90;;;0.90;;
65871;SDS011;52653;50.080;21.992;2022-10-03T10:55:14;3.90;;;1.10;;
65871;SDS011;52653;50.080;21.992;2022-10-03T11:01:27;3.70;;;1.10;;
65871;SDS011;52653;50.080;21.992;2022-10-03T11:04:26;3.20;;;1.10;;
65871;SDS011;52653;50.080;21.992;2022-10-03T11:07:36;3.30;;;1.20;;
65871;SDS011;52653;50.080;21.992;2022-10-03T11:10:39;3.50;;;1.20;;
65871;SDS011;52653;50.080;21.992;2022-10-03T11:17:10;4.10;;;1.20;;
65871;SDS011;52653;50.080;21.992;2022-10-03T11:23:18;2.30;;;1.10;;
65871;SDS011;52653;50.080;21.992;2022-10-03T11:26:15;3.20;;;1.10;;
65871;SDS011;52653;50.080;21.992;2022-10-03T11:36:06;3.90;;;1.30;;
65871;SDS011;52653;50.080;21.992;2022-10-03T11:38:53;3.50;;;1.60;;
65871;SDS011;52653;50.080;21.992;2022-10-03T11:41:43;4.60;;;2.10;;
65871;SDS011;52653;50.080;21.992;2022-10-03T11:44:24;3.20;;;1.40;;
65871;SDS011;52653;50.080;21.992;2022-10-03T11:47:04;4.90;;;1.20;;
65871;SDS011;52653;50.080;21.992;2022-10-03T11:50:09;3.20;;;1.50;;
65871;SDS011;52653;50.080;21.992;2022-10-03T11:52:59;2.90;;;1.30;;
65871;SDS011;52653;50.080;21.992;2022-10-03T11:55:48;4.20;;;1.60;;
65871;SDS011;52653;50.080;21.992;2022-10-03T11:58:37;2.70;;;1.30;;
65871;SDS011;52653;50.080;21.992;2022-10-03T12:01:32;4.20;;;1.10;;
65871;SDS011;52653;50.080;21.992;2022-10-03T12:04:22;3.30;;;1.00;;
65871;SDS011;52653;50.080;21.992;2022-10-03T12:07:02;3.30;;;1.20;;
65871;SDS011;52653;50.080;21.992;2022-10-03T12:09:59;3.60;;;1.10;;
65871;SDS011;52653;50.080;21.992;2022-10-03T12:12:41;2.70;;;1.40;;
65871;SDS011;52653;50.080;21.992;2022-10-03T12:15:20;2.60;;;1.30;;
65871;SDS011;52653;50.080;21.992;2022-10-03T12:18:01;3.10;;;1.30;;
65871;SDS011;52653;50.080;21.992;2022-10-03T12:20:44;4.10;;;1.60;;
65871;SDS011;52653;50.080;21.992;2022-10-03T12:23:28;2.70;;;1.10;;
65871;SDS011;52653;50.080;21.992;2022-10-03T12:26:14;2.40;;;1.10;;
65871;SDS011;52653;50.080;21.992;2022-10-03T12:28:51;3.70;;;1.40;;
65871;SDS011;52653;50.080;21.992;2022-10-03T12:31:28;4.30;;;2.10;;
65871;SDS011;52653;50.080;21.992;2022-10-03T12:34:11;5.40;;;1.20;;
65871;SDS011;52653;50.080;21.992;2022-10-03T12:37:00;3.00;;;1.50;;
65871;SDS011;52653;50.080;21.992;2022-10-03T12:39:47;4.30;;;1.60;;
65871;SDS011;52653;50.080;21.992;2022-10-03T12:42:34;4.50;;;1.50;;
65871;SDS011;52653;50.080;21.992;2022-10-03T12:45:17;3.80;;;1.60;;
65871;SDS011;52653;50.080;21.992;2022-10-03T12:47:59;2.90;;;1.30;;
65871;SDS011;52653;50.080;21.992;2022-10-03T12:50:45;5.20;;;1.70;;
65871;SDS011;52653;50.080;21.992;2022-10-03T12:53:27;3.50;;;1.90;;
65871;SDS011;52653;50.080;21.992;2022-10-03T12:56:10;6.10;;;2.60;;
65871;SDS011;52653;50.080;21.992;2022-10-03T12:58:51;5.00;;;2.20;;
65871;SDS011;52653;50.080;21.992;2022-10-03T13:01:32;5.00;;;2.10;;
65871;SDS011;52653;50.080;21.992;2022-10-03T13:04:20;6.90;;;2.80;;
65871;SDS011;52653;50.080;21.992;2022-10-03T13:07:02;5.20;;;2.30;;
65871;SDS011;52653;50.080;21.992;2022-10-03T13:09:56;5.90;;;2.10;;
65871;SDS011;52653;50.080;21.992;2022-10-03T13:12:34;5.10;;;2.30;;
65871;SDS011;52653;50.080;21.992;2022-10-03T13:18:19;5.00;;;2.10;;
65871;SDS011;52653;50.080;21.992;2022-10-03T13:21:08;5.60;;;2.70;;
65871;SDS011;52653;50.080;21.992;2022-10-03T13:24:06;5.80;;;2.40;;
65871;SDS011;52653;50.080;21.992;2022-10-03T13:26:49;5.60;;;2.80;;
65871;SDS011;52653;50.080;21.992;2022-10-03T13:29:29;5.60;;;3.30;;
65871;SDS011;52653;50.080;21.992;2022-10-03T13:32:10;4.70;;;3.00;;
65871;SDS011;52653;50.080;21.992;2022-10-03T13:35:00;6.60;;;3.70;;
65871;SDS011;52653;50.080;21.992;2022-10-03T13:38:05;5.90;;;3.50;;
65871;SDS011;52653;50.080;21.992;2022-10-03T13:40:50;8.00;;;3.80;;
65871;SDS011;52653;50.080;21.992;2022-10-03T13:43:28;5.20;;;3.10;;
65871;SDS011;52653;50.080;21.992;2022-10-03T13:46:05;5.00;;;2.80;;
65871;SDS011;52653;50.080;21.992;2022-10-03T13:48:48;5.90;;;3.00;;
65871;SDS011;52653;50.080;21.992;2022-10-03T13:51:32;5.80;;;2.90;;
65871;SDS011;52653;50.080;21.992;2022-10-03T13:54:14;6.20;;;2.90;;
65871;SDS011;52653;50.080;21.992;2022-10-03T13:56:54;5.50;;;3.00;;
65871;SDS011;52653;50.080;21.992;2022-10-03T13:59:37;5.50;;;2.80;;
65871;SDS011;52653;50.080;21.992;2022-10-03T14:02:31;6.00;;;3.00;;
65871;SDS011;52653;50.080;21.992;2022-10-03T14:05:19;7.10;;;2.90;;
65871;SDS011;52653;50.080;21.992;2022-10-03T14:08:02;6.90;;;3.40;;
65871;SDS011;52653;50.080;21.992;2022-10-03T14:10:59;7.00;;;3.70;;
65871;SDS011;52653;50.080;21.992;2022-10-03T14:13:42;7.10;;;3.10;;
65871;SDS011;52653;50.080;21.992;2022-10-03T14:16:25;7.20;;;3.60;;
65871;SDS011;52653;50.080;21.992;2022-10-03T14:19:04;7.80;;;3.80;;
65871;SDS011;52653;50.080;21.992;2022-10-03T14:21:50;6.40;;;4.00;;
65871;SDS011;52653;50.080;21.992;2022-10-03T14:24:45;8.30;;;4.70;;
65871;SDS011;52653;50.080;21.992;2022-10-03T14:27:36;4.90;;;3.00;;
65871;SDS011;52653;50.080;21.992;2022-10-03T14:30:16;6.60;;;3.50;;
65871;SDS011;52653;50.080;21.992;2022-10-03T14:32:53;7.40;;;3.70;;
65871;SDS011;52653;50.080;21.992;2022-10-03T14:35:40;9.10;;;3.70;;
65871;SDS011;52653;50.080;21.992;2022-10-03T14:38:31;8.10;;;3.90;;
65871;SDS011;52653;50.080;21.992;2022-10-03T14:41:37;9.20;;;4.50;;
65871;SDS011;52653;50.080;21.992;2022-10-03T14:44:16;8.50;;;4.80;;
65871;SDS011;52653;50.080;21.992;2022-10-03T14:46:53;8.40;;;4.70;;
65871;SDS011;52653;50.080;21.992;2022-10-03T14:49:31;7.00;;;3.60;;
65871;SDS011;52653;50.080;21.992;2022-10-03T14:52:27;9.00;;;3.30;;
65871;SDS011;52653;50.080;21.992;2022-10-03T14:55:06;7.50;;;3.70;;
65871;SDS011;52653;50.080;21.992;2022-10-03T14:57:44;7.10;;;3.70;;
65871;SDS011;52653;50.080;21.992;2022-10-03T15:00:39;7.30;;;3.80;;
65871;SDS011;52653;50.080;21.992;2022-10-03T15:03:21;9.20;;;4.10;;
65871;SDS011;52653;50.080;21.992;2022-10-03T15:08:52;6.50;;;3.30;;
65871;SDS011;52653;50.080;21.992;2022-10-03T15:11:26;7.50;;;3.10;;
65871;SDS011;52653;50.080;21.992;2022-10-03T15:14:01;5.90;;;3.10;;
65871;SDS011;52653;50.080;21.992;2022-10-03T15:16:35;8.10;;;3.20;;
65871;SDS011;52653;50.080;21.992;2022-10-03T15:19:14;8.70;;;4.10;;
65871;SDS011;52653;50.080;21.992;2022-10-03T15:21:50;7.10;;;3.40;;
65871;SDS011;52653;50.080;21.992;2022-10-03T15:24:23;7.50;;;4.00;;
65871;SDS011;52653;50.080;21.992;2022-10-03T15:27:03;9.80;;;4.50;;
65871;SDS011;52653;50.080;21.992;2022-10-03T15:29:42;8.60;;;4.30;;
65871;SDS011;52653;50.080;21.992;2022-10-03T15:32:18;8.60;;;3.80;;
65871;SDS011;52653;50.080;21.992;2022-10-03T15:34:57;8.20;;;3.90;;
65871;SDS011;52653;50.080;21.992;2022-10-03T15:37:31;11.20;;;6.20;;
65871;SDS011;52653;50.080;21.992;2022-10-03T15:40:22;7.90;;;3.70;;
65871;SDS011;52653;50.080;21.992;2022-10-03T15:43:04;9.60;;;3.50;;
65871;SDS011;52653;50.080;21.992;2022-10-03T15:45:49;7.60;;;3.80;;
65871;SDS011;52653;50.080;21.992;2022-10-03T15:48:22;7.30;;;3.50;;
65871;SDS011;52653;50.080;21.992;2022-10-03T15:50:56;7.30;;;4.10;;
65871;SDS011;52653;50.080;21.992;2022-10-03T15:53:47;8.70;;;4.40;;
65871;SDS011;52653;50.080;21.992;2022-10-03T15:56:22;7.90;;;4.30;;
65871;SDS011;52653;50.080;21.992;2022-10-03T15:59:07;10.40;;;5.00;;
65871;SDS011;52653;50.080;21.992;2022-10-03T16:01:49;6.70;;;4.00;;
65871;SDS011;52653;50.080;21.992;2022-10-03T16:04:35;7.40;;;4.00;;
65871;SDS011;52653;50.080;21.992;2022-10-03T16:07:19;8.20;;;4.20;;
65871;SDS011;52653;50.080;21.992;2022-10-03T16:10:18;6.80;;;3.10;;
65871;SDS011;52653;50.080;21.992;2022-10-03T16:13:16;7.10;;;3.60;;
65871;SDS011;52653;50.080;21.992;2022-10-03T16:22:18;6.80;;;3.70;;
65871;SDS011;52653;50.080;21.992;2022-10-03T16:27:39;7.70;;;4.30;;
65871;SDS011;52653;50.080;21.992;2022-10-03T16:30:20;6.80;;;3.50;;
65871;SDS011;52653;50.080;21.992;2022-10-03T16:32:58;7.50;;;4.40;;
65871;SDS011;52653;50.080;21.992;2022-10-03T16:35:55;6.30;;;3.30;;
65871;SDS011;52653;50.080;21.992;2022-10-03T16:38:42;7.50;;;3.80;;
65871;SDS011;52653;50.080;21.992;2022-10-03T16:41:40;9.30;;;4.50;;
65871;SDS011;52653;50.080;21.992;2022-10-03T16:44:18;7.00;;;3.10;;
65871;SDS011;52653;50.080;21.992;2022-10-03T16:47:06;6.30;;;3.30;;
65871;SDS011;52653;50.080;21.992;2022-10-03T16:50:00;7.80;;;4.10;;
65871;SDS011;52653;50.080;21.992;2022-10-03T16:53:01;7.40;;;4.00;;
65871;SDS011;52653;50.080;21.992;2022-10-03T16:56:02;8.50;;;4.90;;
65871;SDS011;52653;50.080;21.992;2022-10-03T16:58:40;10.00;;;5.30;;
65871;SDS011;52653;50.080;21.992;2022-10-03T17:01:25;6.40;;;3.00;;
65871;SDS011;52653;50.080;21.992;2022-10-03T17:04:16;8.70;;;4.50;;
65871;SDS011;52653;50.080;21.992;2022-10-03T17:06:54;7.40;;;3.80;;
65871;SDS011;52653;50.080;21.992;2022-10-03T17:09:31;8.10;;;4.40;;
65871;SDS011;52653;50.080;21.992;2022-10-03T17:12:23;8.80;;;4.20;;
65871;SDS011;52653;50.080;21.992;2022-10-03T17:15:05;7.20;;;3.50;;
65871;SDS011;52653;50.080;21.992;2022-10-03T17:18:07;7.40;;;3.90;;
65871;SDS011;52653;50.080;21.992;2022-10-03T17:21:04;6.70;;;3.70;;
65871;SDS011;52653;50.080;21.992;2022-10-03T17:24:05;7.80;;;4.40;;
65871;SDS011;52653;50.080;21.992;2022-10-03T17:26:40;5.80;;;3.50;;
65871;SDS011;52653;50.080;21.992;2022-10-03T17:29:26;6.60;;;3.60;;
65871;SDS011;52653;50.080;21.992;2022-10-03T17:32:07;8.70;;;4.40;;
65871;SDS011;52653;50.080;21.992;2022-10-03T17:34:55;8.00;;;4.40;;
65871;SDS011;52653;50.080;21.992;2022-10-03T17:41:30;10.90;;;5.90;;
65871;SDS011;52653;50.080;21.992;2022-10-03T17:44:25;12.30;;;6.30;;
65871;SDS011;52653;50.080;21.992;2022-10-03T17:47:04;13.20;;;5.90;;
65871;SDS011;52653;50.080;21.992;2022-10-03T17:49:47;12.10;;;6.50;;
65871;SDS011;52653;50.080;21.992;2022-10-03T17:52:27;10.40;;;5.80;;
65871;SDS011;52653;50.080;21.992;2022-10-03T17:55:03;11.20;;;6.00;;
65871;SDS011;52653;50.080;21.992;2022-10-03T17:57:50;11.10;;;6.30;;
65871;SDS011;52653;50.080;21.992;2022-10-03T18:00:36;11.90;;;7.00;;
65871;SDS011;52653;50.080;21.992;2022-10-03T18:03:45;10.50;;;6.10;;
65871;SDS011;52653;50.080;21.992;2022-10-03T18:06:32;8.60;;;4.30;;
65871;SDS011;52653;50.080;21.992;2022-10-03T18:09:08;9.80;;;5.60;;
65871;SDS011;52653;50.080;21.992;2022-10-03T18:12:13;9.90;;;5.70;;
65871;SDS011;52653;50.080;21.992;2022-10-03T18:21:45;15.30;;;9.30;;
65871;SDS011;52653;50.080;21.992;2022-10-03T18:24:51;18.10;;;9.50;;
65871;SDS011;52653;50.080;21.992;2022-10-03T18:27:50;14.50;;;8.10;;
65871;SDS011;52653;50.080;21.992;2022-10-03T18:30:44;16.70;;;9.00;;
65871;SDS011;52653;50.080;21.992;2022-10-03T18:33:22;8.90;;;4.80;;
65871;SDS011;52653;50.080;21.992;2022-10-03T18:35:58;11.70;;;6.30;;
65871;SDS011;52653;50.080;21.992;2022-10-03T18:38:38;11.20;;;6.00;;
65871;SDS011;52653;50.080;21.992;2022-10-03T18:41:13;8.30;;;5.30;;
65871;SDS011;52653;50.080;21.992;2022-10-03T18:44:12;9.30;;;5.20;;
65871;SDS011;52653;50.080;21.992;2022-10-03T18:46:47;7.00;;;3.60;;
65871;SDS011;52653;50.080;21.992;2022-10-03T18:49:25;8.30;;;5.00;;
65871;SDS011;52653;50.080;21.992;2022-10-03T18:52:07;7.70;;;4.60;;
65871;SDS011;52653;50.080;21.992;2022-10-03T18:54:49;10.70;;;4.90;;
65871;SDS011;52653;50.080;21.992;2022-10-03T18:57:34;7.10;;;4.50;;
65871;SDS011;52653;50.080;21.992;2022-10-03T19:00:13;8.30;;;4.40;;
65871;SDS011;52653;50.080;21.992;2022-10-03T19:02:49;7.90;;;4.40;;
65871;SDS011;52653;50.080;21.992;2022-10-03T19:05:24;7.50;;;5.10;;
65871;SDS011;52653;50.080;21.992;2022-10-03T19:08:15;7.70;;;5.10;;
65871;SDS011;52653;50.080;21.992;2022-10-03T19:10:52;8.60;;;5.20;;
65871;SDS011;52653;50.080;21.992;2022-10-03T19:13:31;8.80;;;5.10;;
65871;SDS011;52653;50.080;21.992;2022-10-03T19:16:21;6.70;;;4.10;;
65871;SDS011;52653;50.080;21.992;2022-10-03T19:19:05;9.80;;;5.00;;
65871;SDS011;52653;50.080;21.992;2022-10-03T19:21:43;7.20;;;4.40;;
65871;SDS011;52653;50.080;21.992;2022-10-03T19:24:16;8.40;;;4.70;;
65871;SDS011;52653;50.080;21.992;2022-10-03T19:27:20;9.90;;;4.50;;
65871;SDS011;52653;50.080;21.992;2022-10-03T19:29:57;8.00;;;4.50;;
65871;SDS011;52653;50.080;21.992;2022-10-03T19:32:45;8.70;;;5.40;;
65871;SDS011;52653;50.080;21.992;2022-10-03T19:35:23;10.90;;;5.80;;
65871;SDS011;52653;50.080;21.992;2022-10-03T19:37:58;8.80;;;5.50;;
65871;SDS011;52653;50.080;21.992;2022-10-03T19:40:42;9.40;;;5.90;;
65871;SDS011;52653;50.080;21.992;2022-10-03T19:43:33;9.40;;;5.90;;